createdAt,value
2022-08-12T00:02:02.724Z,25.80
2022-08-12T00:04:52.987Z,27.17
2022-08-12T00:07:39.206Z,25.13
2022-08-12T00:10:26.055Z,21.20
2022-08-12T00:13:13.729Z,27.27
2022-08-12T00:16:04.010Z,23.40
2022-08-12T00:18:50.257Z,21.25
2022-08-12T00:21:37.558Z,23.42
2022-08-12T00:24:24.738Z,23.70
2022-08-12T00:27:11.339Z,22.75
2022-08-12T00:29:58.007Z,17.02
2022-08-12T00:32:50.957Z,23.27
2022-08-12T00:35:43.191Z,20.55
2022-08-12T00:38:30.555Z,23.00
2022-08-12T00:41:17.248Z,20.05
2022-08-12T00:43:45.209Z,20.05
2022-08-12T00:46:31.359Z,21.33
2022-08-12T00:48:59.248Z,18.95
2022-08-12T00:51:46.907Z,22.73
2022-08-12T00:54:15.927Z,26.02
2022-08-12T00:56:43.732Z,21.40
2022-08-12T00:59:11.604Z,18.90
2022-08-12T01:02:02.380Z,21.95
2022-08-12T01:04:46.655Z,24.27
2022-08-12T01:07:33.481Z,25.83
2022-08-12T01:10:27.412Z,22.70
2022-08-12T01:13:07.290Z,24.73
2022-08-12T01:15:46.662Z,25.17
2022-08-12T01:18:14.696Z,22.17
2022-08-12T01:21:19.956Z,22.95
2022-08-12T01:24:30.142Z,21.75
2022-08-12T01:26:50.830Z,28.25
2022-08-12T01:29:21.097Z,24.77
2022-08-12T01:31:50.209Z,26.50
2022-08-12T01:34:28.772Z,24.00
2022-08-12T01:37:04.283Z,26.52
2022-08-12T01:40:36.990Z,22.02
2022-08-12T01:42:37.875Z,22.98
2022-08-12T01:45:06.263Z,27.65
2022-08-12T01:48:03.882Z,23.83
2022-08-12T01:50:37.134Z,27.02
2022-08-12T01:53:12.543Z,27.02
2022-08-12T01:55:42.351Z,27.73
2022-08-12T01:58:31.981Z,23.90
2022-08-12T02:01:03.932Z,24.17
2022-08-12T02:03:59.560Z,22.33
2022-08-12T02:07:01.201Z,25.50
2022-08-12T02:10:00.309Z,20.45
2022-08-12T02:12:46.819Z,21.75
2022-08-12T02:15:59.481Z,21.60
2022-08-12T02:18:36.516Z,23.27
2022-08-12T02:21:19.615Z,19.63
2022-08-12T02:23:47.719Z,23.95
2022-08-12T02:26:16.152Z,22.83
2022-08-12T02:28:43.912Z,23.80
2022-08-12T02:31:12.248Z,21.98
2022-08-12T02:33:39.943Z,22.85
2022-08-12T02:36:08.092Z,22.02
2022-08-12T02:38:36.321Z,21.05
2022-08-12T02:41:04.954Z,21.75
2022-08-12T02:43:41.380Z,20.77
2022-08-12T02:46:14.389Z,23.30
2022-08-12T02:48:53.879Z,20.15
2022-08-12T02:51:31.469Z,21.25
2022-08-12T02:54:04.377Z,24.13
2022-08-12T02:56:38.138Z,22.77
2022-08-12T02:59:06.979Z,23.98
2022-08-12T03:01:35.146Z,19.65
2022-08-12T03:04:15.383Z,24.27
2022-08-12T03:07:21.864Z,20.38
2022-08-12T03:10:04.226Z,20.13
2022-08-12T03:12:48.805Z,24.38
2022-08-12T03:15:18.330Z,21.05
2022-08-12T03:18:25.869Z,19.95
2022-08-12T03:20:48.868Z,22.10
2022-08-12T03:23:17.352Z,24.33
2022-08-12T03:25:59.057Z,21.65
2022-08-12T03:28:47.811Z,18.77
2022-08-12T03:31:15.473Z,27.65
2022-08-12T03:34:00.492Z,20.73
2022-08-12T03:36:29.530Z,21.73
2022-08-12T03:39:16.033Z,24.95
2022-08-12T03:42:02.034Z,21.80
2022-08-12T03:44:58.715Z,19.52
2022-08-12T03:48:04.383Z,20.40
2022-08-12T03:50:54.184Z,26.85
2022-08-12T03:53:45.796Z,21.70
2022-08-12T03:56:32.361Z,21.25
2022-08-12T03:59:19.681Z,28.23
2022-08-12T04:01:55.423Z,22.75
2022-08-12T04:04:36.727Z,31.20
2022-08-12T04:09:39.490Z,25.98
2022-08-12T04:12:26.376Z,33.35
2022-08-12T04:14:54.849Z,27.88
2022-08-12T04:17:22.534Z,26.88
2022-08-12T04:19:50.480Z,21.27
2022-08-12T04:22:18.130Z,24.83
2022-08-12T04:24:50.515Z,24.38
2022-08-12T04:27:18.515Z,23.63
2022-08-12T04:30:29.148Z,27.40
2022-08-12T04:32:37.687Z,25.98
2022-08-12T04:35:09.206Z,23.13
2022-08-12T04:37:58.905Z,26.13
2022-08-12T04:40:28.734Z,31.40
2022-08-12T04:42:57.229Z,23.48
2022-08-12T04:45:25.256Z,28.08
2022-08-12T04:47:53.047Z,25.17
2022-08-12T04:50:34.831Z,28.02
2022-08-12T04:53:05.872Z,32.50
2022-08-12T04:55:33.672Z,29.20
2022-08-12T04:58:01.425Z,39.75
2022-08-12T05:00:29.125Z,20.15
2022-08-12T05:02:56.907Z,26.48
2022-08-12T05:05:24.742Z,28.95
2022-08-12T05:07:54.443Z,33.90
2022-08-12T05:10:33.213Z,31.77
2022-08-12T05:13:14.532Z,34.30
2022-08-12T05:16:02.564Z,27.83
2022-08-12T05:18:30.429Z,29.83
2022-08-12T05:20:59.356Z,26.42
2022-08-12T05:23:27.290Z,21.45
2022-08-12T05:25:57.290Z,27.08
2022-08-12T05:28:27.251Z,24.23
2022-08-12T05:30:55.927Z,22.15
2022-08-12T05:33:28.830Z,24.52
2022-08-12T05:35:56.755Z,29.65
2022-08-12T05:38:42.748Z,20.92
2022-08-12T05:41:19.350Z,22.88
2022-08-12T05:43:48.622Z,25.02
2022-08-12T05:46:22.453Z,18.45
2022-08-12T05:48:51.418Z,21.95
2022-08-12T05:51:19.055Z,16.80
2022-08-12T05:53:46.969Z,16.83
2022-08-12T05:56:22.916Z,15.10
2022-08-12T05:58:51.867Z,12.95
2022-08-12T06:02:10.196Z,16.75
2022-08-12T06:04:09.482Z,18.73
2022-08-12T06:06:42.476Z,14.55
2022-08-12T06:09:11.662Z,15.82
2022-08-12T06:12:05.002Z,12.98
2022-08-12T06:14:29.532Z,16.55
2022-08-12T06:16:57.895Z,18.92
2022-08-12T06:20:27.380Z,18.23
2022-08-12T06:22:15.687Z,13.55
2022-08-12T06:24:43.745Z,16.20
2022-08-12T06:27:11.871Z,17.92
2022-08-12T06:30:09.990Z,16.55
2022-08-12T06:32:28.697Z,16.15
2022-08-12T06:35:26.142Z,19.10
2022-08-12T06:37:51.313Z,17.95
2022-08-12T06:40:43.065Z,21.48
2022-08-12T06:43:10.739Z,15.82
2022-08-12T06:45:46.988Z,21.05
2022-08-12T06:48:14.744Z,19.92
2022-08-12T06:50:42.711Z,18.42
2022-08-12T06:53:11.458Z,16.95
2022-08-12T06:55:57.701Z,21.65
2022-08-12T06:58:27.759Z,20.65
2022-08-12T07:00:58.098Z,27.77
2022-08-12T07:03:29.804Z,27.97
2022-08-12T07:06:01.816Z,28.48
2022-08-12T07:08:30.987Z,29.05
2022-08-12T07:11:02.655Z,33.90
2022-08-12T07:14:11.207Z,28.50
2022-08-12T07:16:47.125Z,27.45
2022-08-12T07:19:15.139Z,26.70
2022-08-12T07:22:01.728Z,32.85
2022-08-12T07:24:30.745Z,24.75
2022-08-12T07:26:58.990Z,24.85
2022-08-12T07:30:03.982Z,29.83
2022-08-12T07:32:17.910Z,24.10
2022-08-12T07:34:47.508Z,26.83
2022-08-12T07:37:16.735Z,28.65
2022-08-12T07:39:50.289Z,26.33
2022-08-12T07:42:27.008Z,34.88
2022-08-12T07:44:56.093Z,26.70
2022-08-12T07:47:24.526Z,27.90
2022-08-12T07:50:04.345Z,29.02
2022-08-12T07:52:35.623Z,24.50
2022-08-12T07:55:03.436Z,30.00
2022-08-12T07:57:34.191Z,24.65
2022-08-12T08:00:03.964Z,24.23
2022-08-12T08:02:36.534Z,26.50
2022-08-12T08:05:05.065Z,25.77
2022-08-12T08:07:34.239Z,23.85
2022-08-12T08:10:04.096Z,24.58
2022-08-12T08:12:50.414Z,25.47
2022-08-12T08:15:29.637Z,24.77
2022-08-12T08:18:10.509Z,25.75
2022-08-12T08:20:42.664Z,26.10
2022-08-12T08:23:17.447Z,20.13
2022-08-12T08:25:45.899Z,24.38
2022-08-12T08:28:19.115Z,24.23
2022-08-12T08:30:56.788Z,26.13
2022-08-12T08:34:01.452Z,23.50
2022-08-12T08:36:23.779Z,26.42
2022-08-12T08:38:58.636Z,23.73
2022-08-12T08:42:18.805Z,24.65
2022-08-12T08:44:39.824Z,21.65
2022-08-12T08:47:12.567Z,21.45
2022-08-12T08:49:41.135Z,19.15
2022-08-12T08:52:10.662Z,21.17
2022-08-12T08:54:39.022Z,21.38
2022-08-12T08:57:09.146Z,23.13
2022-08-12T08:59:37.313Z,20.85
2022-08-12T09:02:07.562Z,20.42
2022-08-12T09:05:13.907Z,23.98
2022-08-12T09:07:43.818Z,42.30
2022-08-12T09:10:30.661Z,39.42
2022-08-12T09:13:29.241Z,30.75
2022-08-12T09:16:20.352Z,22.33
2022-08-12T09:22:28.559Z,20.30
2022-08-12T09:24:59.979Z,19.98
2022-08-12T09:28:04.341Z,20.55
2022-08-12T09:30:18.641Z,22.90
2022-08-12T09:33:19.365Z,22.27
2022-08-12T09:36:03.037Z,26.55
2022-08-12T09:38:35.374Z,20.15
2022-08-12T09:42:09.028Z,25.20
2022-08-12T09:44:17.081Z,24.60
2022-08-12T09:46:59.510Z,20.70
2022-08-12T09:49:28.566Z,26.08
2022-08-12T09:51:58.364Z,19.30
2022-08-12T09:54:35.248Z,20.23
2022-08-12T09:58:44.740Z,21.60
2022-08-12T10:00:15.232Z,20.90
2022-08-12T10:03:32.149Z,19.77
2022-08-12T10:06:27.665Z,20.02
2022-08-12T10:08:53.496Z,20.55
2022-08-12T10:12:11.126Z,20.25
2022-08-12T10:14:34.595Z,19.50
2022-08-12T10:17:08.861Z,20.90
2022-08-12T10:19:40.221Z,23.48
2022-08-12T10:22:38.782Z,24.95
2022-08-12T10:26:34.465Z,21.52
2022-08-12T10:28:38.442Z,22.25
2022-08-12T10:31:15.986Z,22.27
2022-08-12T10:34:05.081Z,23.02
2022-08-12T10:36:40.074Z,21.60
2022-08-12T10:40:00.320Z,24.58
2022-08-12T10:42:18.354Z,27.58
2022-08-12T10:45:04.842Z,22.05
2022-08-12T10:48:07.625Z,22.58
2022-08-12T10:50:35.786Z,22.65
2022-08-12T10:53:19.541Z,25.23
2022-08-12T10:55:55.548Z,24.45
2022-08-12T10:58:31.615Z,20.92
2022-08-12T11:03:01.489Z,23.95
2022-08-12T11:04:27.373Z,26.88
2022-08-12T11:07:09.299Z,25.77
2022-08-12T11:09:56.152Z,24.27
2022-08-12T11:12:55.683Z,22.67
2022-08-12T11:15:21.334Z,20.85
2022-08-12T11:18:03.246Z,26.58
2022-08-12T11:20:31.601Z,23.40
2022-08-12T11:23:03.553Z,27.60
2022-08-12T11:25:56.413Z,27.95
2022-08-12T11:28:33.541Z,24.83
2022-08-12T11:31:12.369Z,23.42
2022-08-12T11:34:05.666Z,25.83
2022-08-12T11:36:31.925Z,23.38
2022-08-12T11:39:05.163Z,29.27
2022-08-12T11:41:40.497Z,29.77
2022-08-12T11:47:09.514Z,18.30
2022-08-12T11:49:38.624Z,21.65
2022-08-12T11:52:17.482Z,21.50
2022-08-12T11:54:55.425Z,25.48
2022-08-12T11:58:14.420Z,26.52
2022-08-12T12:03:01.933Z,28.07
2022-08-12T12:08:38.466Z,23.95
2022-08-12T12:10:59.361Z,21.73
2022-08-12T12:14:07.929Z,22.60
2022-08-12T12:16:19.914Z,21.63
2022-08-12T12:18:49.057Z,20.67
2022-08-12T12:21:18.496Z,20.73
2022-08-12T12:24:07.838Z,22.98
2022-08-12T12:26:38.717Z,21.92
2022-08-12T12:30:14.161Z,21.63
2022-08-12T12:32:11.173Z,20.02
2022-08-12T12:35:13.113Z,19.73
2022-08-12T12:38:05.577Z,14.95
2022-08-12T12:40:20.767Z,21.67
2022-08-12T12:42:57.674Z,21.05
2022-08-12T12:45:32.510Z,21.65
2022-08-12T12:48:05.607Z,18.92
2022-08-12T12:50:47.645Z,20.77
2022-08-12T12:54:07.488Z,16.63
2022-08-12T12:56:18.651Z,20.80
2022-08-12T12:58:50.283Z,19.10
2022-08-12T13:01:25.461Z,17.85
2022-08-12T13:04:02.215Z,17.95
2022-08-12T13:06:35.494Z,21.45
2022-08-12T13:09:05.258Z,19.75
2022-08-12T13:11:41.483Z,19.10
2022-08-12T13:14:28.005Z,13.55
2022-08-12T13:17:03.395Z,16.50
2022-08-12T13:19:37.416Z,16.38
2022-08-12T13:22:19.033Z,15.27
2022-08-12T13:24:56.546Z,16.80
2022-08-12T13:27:42.436Z,15.07
2022-08-12T13:30:23.838Z,15.27
2022-08-12T13:32:59.080Z,15.25
2022-08-12T13:36:05.760Z,15.10
2022-08-12T13:39:00.615Z,15.65
2022-08-12T13:41:34.588Z,17.83
2022-08-12T13:44:04.616Z,18.77
2022-08-12T13:46:36.488Z,20.03
2022-08-12T13:49:06.919Z,18.15
2022-08-12T13:51:40.754Z,14.18
2022-08-12T13:54:14.033Z,17.30
2022-08-12T13:56:41.989Z,17.15
2022-08-12T13:59:24.575Z,20.15
2022-08-12T14:01:56.830Z,14.23
2022-08-12T14:04:25.477Z,14.73
2022-08-12T14:06:55.375Z,12.27
2022-08-12T14:09:29.517Z,16.88
2022-08-12T14:11:59.539Z,12.40
2022-08-12T14:14:31.740Z,11.07
2022-08-12T14:17:10.710Z,13.85
2022-08-12T14:20:00.697Z,10.30
2022-08-12T14:22:30.254Z,16.48
2022-08-12T14:24:59.192Z,10.25
2022-08-12T14:28:03.379Z,10.47
2022-08-12T14:30:28.925Z,8.63
2022-08-12T14:32:58.200Z,11.48
2022-08-12T14:35:27.908Z,9.13
2022-08-12T14:38:16.456Z,13.82
2022-08-12T14:40:44.844Z,12.05
2022-08-12T14:43:14.423Z,12.93
2022-08-12T14:48:24.106Z,11.20
2022-08-12T14:51:02.885Z,9.98
2022-08-12T14:57:00.141Z,11.23
2022-08-12T14:59:56.710Z,7.68
2022-08-12T15:02:25.821Z,12.70
2022-08-12T15:04:59.580Z,11.15
2022-08-12T15:07:33.319Z,11.15
2022-08-12T15:10:13.660Z,13.50
2022-08-12T15:12:41.560Z,11.83
2022-08-12T15:15:10.445Z,10.63
2022-08-12T15:17:39.509Z,11.85
2022-08-12T15:20:30.959Z,10.18
2022-08-12T15:22:58.063Z,11.98
2022-08-12T15:25:29.361Z,11.02
2022-08-12T15:28:10.879Z,11.65
2022-08-12T15:30:48.676Z,13.48
2022-08-12T15:33:18.734Z,10.93
2022-08-12T15:35:52.753Z,12.52
2022-08-12T15:38:25.138Z,13.30
2022-08-12T15:40:54.369Z,12.40
2022-08-12T15:43:51.247Z,12.45
2022-08-12T15:46:15.070Z,11.98
2022-08-12T15:48:47.000Z,15.25
2022-08-12T15:51:58.155Z,8.85
2022-08-12T15:54:35.144Z,11.20
2022-08-12T15:57:13.561Z,14.32
2022-08-12T16:02:50.760Z,14.15
2022-08-12T16:06:12.888Z,10.98
2022-08-12T16:08:15.286Z,15.68
2022-08-12T16:10:46.481Z,11.82
2022-08-12T16:13:25.169Z,12.48
2022-08-12T16:16:03.849Z,13.25
2022-08-12T16:18:37.498Z,16.85
2022-08-12T16:21:07.574Z,14.63
2022-08-12T16:23:55.204Z,15.57
2022-08-12T16:26:27.551Z,11.05
2022-08-12T16:29:15.680Z,15.57
2022-08-12T16:31:44.954Z,18.70
2022-08-12T16:34:40.063Z,12.45
2022-08-12T16:37:08.097Z,15.77
2022-08-12T16:40:01.031Z,13.38
2022-08-12T16:42:28.242Z,11.68
2022-08-12T16:47:27.220Z,17.67
2022-08-12T16:49:57.939Z,14.63
2022-08-12T16:52:26.139Z,14.48
2022-08-12T16:54:54.936Z,13.13
2022-08-12T16:57:34.950Z,15.65
2022-08-12T17:00:13.221Z,18.13
2022-08-12T17:02:41.223Z,13.77
2022-08-12T17:07:52.788Z,17.58
2022-08-12T17:10:35.609Z,13.40
2022-08-12T17:13:10.142Z,16.70
2022-08-12T17:15:57.326Z,16.35
2022-08-12T17:18:43.165Z,17.23
2022-08-12T17:21:19.602Z,16.42
2022-08-12T17:23:54.026Z,15.18
2022-08-12T17:26:27.965Z,17.58
2022-08-12T17:29:00.024Z,19.73
2022-08-12T17:31:59.227Z,18.67
2022-08-12T17:34:38.417Z,16.23
2022-08-12T17:37:07.457Z,17.98
2022-08-12T17:40:13.528Z,19.23
2022-08-12T17:42:34.784Z,17.17
2022-08-12T17:45:18.229Z,22.63
2022-08-12T17:48:01.436Z,15.20
2022-08-12T17:50:32.603Z,23.45
2022-08-12T17:53:03.280Z,17.38
2022-08-12T17:55:43.639Z,15.48
2022-08-12T17:58:36.934Z,20.80
2022-08-12T18:01:11.208Z,19.42
2022-08-12T18:04:05.390Z,18.75
2022-08-12T18:06:28.599Z,18.23
2022-08-12T18:08:59.093Z,23.25
2022-08-12T18:12:05.340Z,20.88
2022-08-12T18:14:37.130Z,17.92
2022-08-12T18:17:09.843Z,16.00
2022-08-12T18:22:55.701Z,15.98
2022-08-12T18:26:14.868Z,22.70
2022-08-12T18:28:43.260Z,19.20
2022-08-12T18:31:15.672Z,16.48
2022-08-12T18:33:45.964Z,15.40
2022-08-12T18:36:14.375Z,16.95
2022-08-12T18:38:58.258Z,21.27
2022-08-12T18:41:32.026Z,16.40
2022-08-12T18:44:09.631Z,18.45
2022-08-12T18:46:47.369Z,19.02
2022-08-12T18:49:39.951Z,17.55
2022-08-12T18:52:11.583Z,15.68
2022-08-12T18:54:49.136Z,13.98
2022-08-12T18:58:07.041Z,18.30
2022-08-12T19:00:16.212Z,15.77
2022-08-12T19:02:45.075Z,16.60
2022-08-12T19:05:17.823Z,19.00
2022-08-12T19:08:01.099Z,18.42
2022-08-12T19:10:31.818Z,16.20
2022-08-12T19:13:24.182Z,18.80
2022-08-12T19:15:54.666Z,17.05
2022-08-12T19:18:29.861Z,17.60
2022-08-12T19:21:12.025Z,18.83
2022-08-12T19:24:04.772Z,15.68
2022-08-12T19:26:36.642Z,18.40
2022-08-12T19:29:05.800Z,17.73
2022-08-12T19:31:45.423Z,16.98
2022-08-12T19:34:56.347Z,17.05
2022-08-12T19:37:22.708Z,21.90
2022-08-12T19:40:09.228Z,17.35
2022-08-12T19:42:44.572Z,20.75
2022-08-12T19:45:16.493Z,20.58
2022-08-12T19:47:46.879Z,23.65
2022-08-12T19:50:20.344Z,23.90
2022-08-12T19:52:50.981Z,19.55
2022-08-12T19:55:21.442Z,16.80
2022-08-12T19:58:03.035Z,16.25
2022-08-12T20:00:34.853Z,20.63
2022-08-12T20:03:04.732Z,20.67
2022-08-12T20:06:05.215Z,21.58
2022-08-12T20:08:34.247Z,20.90
2022-08-12T20:12:14.576Z,15.43
2022-08-12T20:14:01.537Z,19.52
2022-08-12T20:16:51.926Z,21.63
2022-08-12T20:19:23.423Z,20.38
2022-08-12T20:21:51.513Z,20.17
2022-08-12T20:24:31.480Z,19.58
2022-08-12T20:27:00.510Z,18.80
2022-08-12T20:29:35.610Z,21.40
2022-08-12T20:32:06.274Z,22.55
2022-08-12T20:34:39.193Z,18.58
2022-08-12T20:37:07.704Z,19.30
2022-08-12T20:39:53.290Z,18.27
2022-08-12T20:42:25.414Z,17.10
2022-08-12T20:44:59.823Z,18.65
2022-08-12T20:47:41.948Z,18.10
2022-08-12T20:50:14.759Z,17.52
2022-08-12T20:52:45.388Z,20.48
2022-08-12T20:55:15.914Z,18.02
2022-08-12T20:58:03.061Z,18.38
2022-08-12T21:00:33.165Z,20.13
2022-08-12T21:03:20.656Z,17.90
2022-08-12T21:06:13.261Z,18.05
2022-08-12T21:08:43.080Z,22.87
2022-08-12T21:11:11.111Z,14.50
2022-08-12T21:13:41.719Z,20.63
2022-08-12T21:16:10.520Z,19.88
2022-08-12T21:18:39.478Z,18.17
2022-08-12T21:21:23.118Z,18.50
2022-08-12T21:23:56.590Z,15.43
2022-08-12T21:26:27.951Z,13.93
2022-08-12T21:29:01.738Z,18.60
2022-08-12T21:32:37.899Z,15.55
2022-08-12T21:34:29.299Z,21.13
2022-08-12T21:37:26.500Z,15.30
2022-08-12T21:39:53.236Z,19.38
2022-08-12T21:42:28.039Z,18.08
2022-08-12T21:45:48.128Z,17.48
2022-08-12T21:47:53.390Z,12.93
2022-08-12T21:50:21.454Z,18.63
2022-08-12T21:52:50.234Z,14.82
2022-08-12T21:55:20.168Z,16.20
2022-08-12T21:57:54.946Z,16.30
2022-08-12T22:00:36.735Z,16.17
2022-08-12T22:04:01.699Z,14.93
2022-08-12T22:06:31.782Z,16.67
2022-08-12T22:09:16.078Z,12.95
2022-08-12T22:11:56.214Z,19.48
2022-08-12T22:14:28.305Z,19.67
2022-08-12T22:16:56.903Z,15.88
2022-08-12T22:19:24.721Z,15.20
2022-08-12T22:21:55.901Z,17.13
2022-08-12T22:24:26.750Z,18.70
2022-08-12T22:27:08.158Z,15.88
2022-08-12T22:30:08.632Z,17.08
2022-08-12T22:32:51.331Z,14.55
2022-08-12T22:35:55.845Z,17.48
2022-08-12T22:38:25.144Z,14.93
2022-08-12T22:40:55.921Z,13.30
2022-08-12T22:44:00.655Z,18.45
2022-08-12T22:46:33.555Z,15.85
2022-08-12T22:49:01.592Z,15.75
2022-08-12T22:51:57.601Z,12.95
2022-08-12T22:54:35.932Z,17.10
2022-08-12T22:57:12.191Z,17.70
2022-08-12T22:59:55.945Z,19.52
2022-08-12T23:02:30.355Z,16.05
2022-08-12T23:04:58.852Z,17.05
2022-08-12T23:07:26.707Z,11.43
2022-08-12T23:10:04.693Z,18.17
2022-08-12T23:12:52.209Z,23.15
2022-08-12T23:15:21.572Z,15.65
2022-08-12T23:17:49.987Z,23.65
2022-08-12T23:20:27.102Z,24.92
2022-08-12T23:23:02.651Z,22.10
2022-08-12T23:25:54.214Z,17.35
2022-08-12T23:28:37.610Z,23.00
2022-08-12T23:31:10.175Z,20.23
2022-08-12T23:34:02.484Z,24.30
2022-08-12T23:36:31.799Z,21.45
2022-08-12T23:40:06.746Z,17.42
2022-08-12T23:42:16.929Z,20.13
2022-08-12T23:44:47.389Z,19.10
2022-08-12T23:49:57.571Z,20.00
2022-08-12T23:52:34.292Z,16.35
2022-08-12T23:55:25.217Z,20.25
2022-08-12T23:58:21.253Z,16.13
